sensor_id;sensor_type;location;lat;lon;timestamp;temperature;humidity
3548;DHT22;1788;49.400;11.092;2022-08-03T00:00:27;23.00;47.40
3548;DHT22;1788;49.400;11.092;2022-08-03T00:02:54;22.90;47.40
3548;DHT22;1788;49.400;11.092;2022-08-03T00:05:20;22.90;47.50
3548;DHT22;1788;49.400;11.092;2022-08-03T00:07:48;22.90;47.60
3548;DHT22;1788;49.400;11.092;2022-08-03T00:10:15;22.90;47.70
3548;DHT22;1788;49.400;11.092;2022-08-03T00:12:41;22.80;47.70
3548;DHT22;1788;49.400;11.092;2022-08-03T00:15:08;22.70;47.80
3548;DHT22;1788;49.400;11.092;2022-08-03T00:17:35;22.70;47.80
3548;DHT22;1788;49.400;11.092;2022-08-03T00:20:02;22.70;48.10
3548;DHT22;1788;49.400;11.092;2022-08-03T00:22:29;22.60;48.00
3548;DHT22;1788;49.400;11.092;2022-08-03T00:24:56;22.60;48.00
3548;DHT22;1788;49.400;11.092;2022-08-03T00:27:22;22.60;47.90
3548;DHT22;1788;49.400;11.092;2022-08-03T00:29:49;22.50;48.20
3548;DHT22;1788;49.400;11.092;2022-08-03T00:32:15;22.50;48.30
3548;DHT22;1788;49.400;11.092;2022-08-03T00:34:42;22.40;48.40
3548;DHT22;1788;49.400;11.092;2022-08-03T00:37:09;22.40;48.50
3548;DHT22;1788;49.400;11.092;2022-08-03T00:39:35;22.40;48.60
3548;DHT22;1788;49.400;11.092;2022-08-03T00:42:02;22.40;48.70
3548;DHT22;1788;49.400;11.092;2022-08-03T00:44:28;22.30;48.70
3548;DHT22;1788;49.400;11.092;2022-08-03T00:46:55;22.30;48.80
3548;DHT22;1788;49.400;11.092;2022-08-03T00:49:22;22.30;49.00
3548;DHT22;1788;49.400;11.092;2022-08-03T00:51:49;22.20;49.10
3548;DHT22;1788;49.400;11.092;2022-08-03T00:54:16;22.20;49.10
3548;DHT22;1788;49.400;11.092;2022-08-03T00:56:42;22.10;49.10
3548;DHT22;1788;49.400;11.092;2022-08-03T00:59:09;22.20;49.30
3548;DHT22;1788;49.400;11.092;2022-08-03T01:01:35;22.10;49.30
3548;DHT22;1788;49.400;11.092;2022-08-03T01:04:03;22.00;49.40
3548;DHT22;1788;49.400;11.092;2022-08-03T01:11:25;21.90;49.60
3548;DHT22;1788;49.400;11.092;2022-08-03T01:16:19;21.90;49.70
3548;DHT22;1788;49.400;11.092;2022-08-03T01:30:57;21.70;50.10
3548;DHT22;1788;49.400;11.092;2022-08-03T01:33:25;21.70;50.20
3548;DHT22;1788;49.400;11.092;2022-08-03T01:35:56;21.70;50.30
3548;DHT22;1788;49.400;11.092;2022-08-03T01:40:44;21.60;50.50
3548;DHT22;1788;49.400;11.092;2022-08-03T01:43:11;21.60;50.50
3548;DHT22;1788;49.400;11.092;2022-08-03T01:45:38;21.60;50.50
3548;DHT22;1788;49.400;11.092;2022-08-03T01:48:04;21.50;50.50
3548;DHT22;1788;49.400;11.092;2022-08-03T01:50:31;21.50;50.60
3548;DHT22;1788;49.400;11.092;2022-08-03T01:52:57;21.40;50.60
3548;DHT22;1788;49.400;11.092;2022-08-03T01:55:24;21.40;50.70
3548;DHT22;1788;49.400;11.092;2022-08-03T01:57:51;21.30;50.80
3548;DHT22;1788;49.400;11.092;2022-08-03T02:00:18;21.30;50.90
3548;DHT22;1788;49.400;11.092;2022-08-03T02:02:45;21.30;50.90
3548;DHT22;1788;49.400;11.092;2022-08-03T02:05:11;21.20;51.50
3548;DHT22;1788;49.400;11.092;2022-08-03T02:07:39;21.20;51.00
3548;DHT22;1788;49.400;11.092;2022-08-03T02:10:05;21.20;51.10
3548;DHT22;1788;49.400;11.092;2022-08-03T02:12:31;21.10;51.20
3548;DHT22;1788;49.400;11.092;2022-08-03T02:14:58;21.10;51.20
3548;DHT22;1788;49.400;11.092;2022-08-03T02:17:25;21.00;51.20
3548;DHT22;1788;49.400;11.092;2022-08-03T02:19:52;21.00;51.40
3548;DHT22;1788;49.400;11.092;2022-08-03T02:22:19;21.00;51.40
3548;DHT22;1788;49.400;11.092;2022-08-03T02:24:46;20.90;51.50
3548;DHT22;1788;49.400;11.092;2022-08-03T02:27:16;20.90;51.50
3548;DHT22;1788;49.400;11.092;2022-08-03T02:29:39;20.80;51.50
3548;DHT22;1788;49.400;11.092;2022-08-03T02:34:33;20.80;51.70
3548;DHT22;1788;49.400;11.092;2022-08-03T02:37:00;20.70;51.80
3548;DHT22;1788;49.400;11.092;2022-08-03T02:39:27;20.60;51.70
3548;DHT22;1788;49.400;11.092;2022-08-03T02:41:53;20.60;51.80
3548;DHT22;1788;49.400;11.092;2022-08-03T02:46:46;20.60;52.00
3548;DHT22;1788;49.400;11.092;2022-08-03T02:49:14;20.50;52.00
3548;DHT22;1788;49.400;11.092;2022-08-03T02:51:40;20.50;52.00
3548;DHT22;1788;49.400;11.092;2022-08-03T02:54:06;20.50;52.10
3548;DHT22;1788;49.400;11.092;2022-08-03T02:56:33;20.50;52.20
3548;DHT22;1788;49.400;11.092;2022-08-03T02:59:00;20.40;52.20
3548;DHT22;1788;49.400;11.092;2022-08-03T03:01:27;20.40;52.20
3548;DHT22;1788;49.400;11.092;2022-08-03T03:03:55;20.30;52.30
3548;DHT22;1788;49.400;11.092;2022-08-03T03:06:21;20.30;52.30
3548;DHT22;1788;49.400;11.092;2022-08-03T03:08:48;20.20;52.40
3548;DHT22;1788;49.400;11.092;2022-08-03T03:11:16;20.20;52.40
3548;DHT22;1788;49.400;11.092;2022-08-03T03:13:42;20.20;52.40
3548;DHT22;1788;49.400;11.092;2022-08-03T03:16:08;20.20;52.50
3548;DHT22;1788;49.400;11.092;2022-08-03T03:18:35;20.20;52.50
3548;DHT22;1788;49.400;11.092;2022-08-03T03:21:03;20.10;52.70
3548;DHT22;1788;49.400;11.092;2022-08-03T03:23:29;20.10;52.60
3548;DHT22;1788;49.400;11.092;2022-08-03T03:25:56;20.00;53.10
3548;DHT22;1788;49.400;11.092;2022-08-03T03:28:23;20.00;52.80
3548;DHT22;1788;49.400;11.092;2022-08-03T03:30:50;20.00;52.90
3548;DHT22;1788;49.400;11.092;2022-08-03T03:33:17;20.00;52.90
3548;DHT22;1788;49.400;11.092;2022-08-03T03:35:43;20.00;53.00
3548;DHT22;1788;49.400;11.092;2022-08-03T03:38:10;19.90;53.00
3548;DHT22;1788;49.400;11.092;2022-08-03T03:40:37;19.90;53.20
3548;DHT22;1788;49.400;11.092;2022-08-03T03:45:33;19.90;53.30
3548;DHT22;1788;49.400;11.092;2022-08-03T03:47:58;19.80;53.20
3548;DHT22;1788;49.400;11.092;2022-08-03T03:50:25;19.90;53.30
3548;DHT22;1788;49.400;11.092;2022-08-03T03:52:51;19.80;53.30
3548;DHT22;1788;49.400;11.092;2022-08-03T03:55:18;19.80;53.40
3548;DHT22;1788;49.400;11.092;2022-08-03T03:57:45;19.90;53.70
3548;DHT22;1788;49.400;11.092;2022-08-03T04:00:12;19.90;53.70
3548;DHT22;1788;49.400;11.092;2022-08-03T04:02:38;20.00;53.60
3548;DHT22;1788;49.400;11.092;2022-08-03T04:05:05;20.20;53.60
3548;DHT22;1788;49.400;11.092;2022-08-03T04:07:34;20.20;53.30
3548;DHT22;1788;49.400;11.092;2022-08-03T04:09:58;20.30;53.30
3548;DHT22;1788;49.400;11.092;2022-08-03T04:12:25;20.20;53.20
3548;DHT22;1788;49.400;11.092;2022-08-03T04:14:52;20.20;53.20
3548;DHT22;1788;49.400;11.092;2022-08-03T04:17:19;20.20;53.20
3548;DHT22;1788;49.400;11.092;2022-08-03T04:19:46;20.10;53.20
3548;DHT22;1788;49.400;11.092;2022-08-03T04:22:14;19.90;53.50
3548;DHT22;1788;49.400;11.092;2022-08-03T04:27:07;19.80;53.60
3548;DHT22;1788;49.400;11.092;2022-08-03T04:29:33;19.80;53.80
3548;DHT22;1788;49.400;11.092;2022-08-03T04:31:59;19.80;53.90
3548;DHT22;1788;49.400;11.092;2022-08-03T04:34:26;19.70;53.90
3548;DHT22;1788;49.400;11.092;2022-08-03T04:36:55;19.80;54.00
3548;DHT22;1788;49.400;11.092;2022-08-03T04:39:22;19.80;54.00
3548;DHT22;1788;49.400;11.092;2022-08-03T04:41:46;19.80;54.10
3548;DHT22;1788;49.400;11.092;2022-08-03T04:44:13;19.80;54.10
3548;DHT22;1788;49.400;11.092;2022-08-03T04:46:40;19.80;54.10
3548;DHT22;1788;49.400;11.092;2022-08-03T04:49:07;19.90;54.20
3548;DHT22;1788;49.400;11.092;2022-08-03T04:51:34;19.90;54.20
3548;DHT22;1788;49.400;11.092;2022-08-03T04:54:01;19.90;54.30
3548;DHT22;1788;49.400;11.092;2022-08-03T04:56:28;19.90;54.30
3548;DHT22;1788;49.400;11.092;2022-08-03T04:58:54;19.90;54.30
3548;DHT22;1788;49.400;11.092;2022-08-03T05:01:21;20.00;54.40
3548;DHT22;1788;49.400;11.092;2022-08-03T05:06:15;20.10;54.50
3548;DHT22;1788;49.400;11.092;2022-08-03T05:08:43;20.20;54.60
3548;DHT22;1788;49.400;11.092;2022-08-03T05:11:09;20.10;54.50
3548;DHT22;1788;49.400;11.092;2022-08-03T05:13:38;20.30;54.50
3548;DHT22;1788;49.400;11.092;2022-08-03T05:16:04;20.20;54.60
3548;DHT22;1788;49.400;11.092;2022-08-03T05:18:31;20.30;54.60
3548;DHT22;1788;49.400;11.092;2022-08-03T05:20:58;20.40;54.60
3548;DHT22;1788;49.400;11.092;2022-08-03T05:23:25;20.40;54.60
3548;DHT22;1788;49.400;11.092;2022-08-03T05:25:52;20.40;54.60
3548;DHT22;1788;49.400;11.092;2022-08-03T05:28:18;20.40;54.70
3548;DHT22;1788;49.400;11.092;2022-08-03T05:30:45;20.50;54.80
3548;DHT22;1788;49.400;11.092;2022-08-03T05:33:11;20.60;54.90
3548;DHT22;1788;49.400;11.092;2022-08-03T05:35:39;20.70;54.90
3548;DHT22;1788;49.400;11.092;2022-08-03T05:38:05;20.70;54.90
3548;DHT22;1788;49.400;11.092;2022-08-03T05:40:32;20.80;54.90
3548;DHT22;1788;49.400;11.092;2022-08-03T05:42:59;20.90;54.90
3548;DHT22;1788;49.400;11.092;2022-08-03T05:45:25;21.10;55.00
3548;DHT22;1788;49.400;11.092;2022-08-03T05:47:53;21.30;54.80
3548;DHT22;1788;49.400;11.092;2022-08-03T05:50:19;21.20;54.70
3548;DHT22;1788;49.400;11.092;2022-08-03T05:52:47;21.50;54.60
3548;DHT22;1788;49.400;11.092;2022-08-03T05:55:13;21.50;54.60
3548;DHT22;1788;49.400;11.092;2022-08-03T05:57:41;21.70;54.40
3548;DHT22;1788;49.400;11.092;2022-08-03T06:00:08;21.70;54.40
3548;DHT22;1788;49.400;11.092;2022-08-03T06:02:34;21.80;54.30
3548;DHT22;1788;49.400;11.092;2022-08-03T06:05:00;21.90;54.20
3548;DHT22;1788;49.400;11.092;2022-08-03T06:07:28;22.00;54.10
3548;DHT22;1788;49.400;11.092;2022-08-03T06:09:55;22.10;54.10
3548;DHT22;1788;49.400;11.092;2022-08-03T06:12:21;22.30;54.00
3548;DHT22;1788;49.400;11.092;2022-08-03T06:14:48;22.40;53.80
3548;DHT22;1788;49.400;11.092;2022-08-03T06:17:14;22.50;53.70
3548;DHT22;1788;49.400;11.092;2022-08-03T06:19:41;22.50;53.60
3548;DHT22;1788;49.400;11.092;2022-08-03T06:22:08;22.60;53.50
3548;DHT22;1788;49.400;11.092;2022-08-03T06:24:34;22.70;53.50
3548;DHT22;1788;49.400;11.092;2022-08-03T06:27:01;22.80;53.30
3548;DHT22;1788;49.400;11.092;2022-08-03T06:29:27;23.00;52.80
3548;DHT22;1788;49.400;11.092;2022-08-03T06:31:54;23.20;53.20
3548;DHT22;1788;49.400;11.092;2022-08-03T06:34:21;23.40;53.00
3548;DHT22;1788;49.400;11.092;2022-08-03T06:36:47;23.60;52.80
3548;DHT22;1788;49.400;11.092;2022-08-03T06:39:14;23.90;52.70
3548;DHT22;1788;49.400;11.092;2022-08-03T06:41:40;24.10;52.50
3548;DHT22;1788;49.400;11.092;2022-08-03T06:44:07;24.30;52.20
3548;DHT22;1788;49.400;11.092;2022-08-03T06:46:34;24.50;52.00
3548;DHT22;1788;49.400;11.092;2022-08-03T06:49:00;24.70;51.60
3548;DHT22;1788;49.400;11.092;2022-08-03T06:51:27;24.80;51.30
3548;DHT22;1788;49.400;11.092;2022-08-03T06:53:54;25.20;51.50
3548;DHT22;1788;49.400;11.092;2022-08-03T06:56:21;25.20;50.90
3548;DHT22;1788;49.400;11.092;2022-08-03T06:58:48;25.30;50.60
3548;DHT22;1788;49.400;11.092;2022-08-03T07:01:14;25.50;50.30
3548;DHT22;1788;49.400;11.092;2022-08-03T07:03:41;25.70;50.10
3548;DHT22;1788;49.400;11.092;2022-08-03T07:06:07;25.90;49.80
3548;DHT22;1788;49.400;11.092;2022-08-03T07:08:34;26.00;49.50
3548;DHT22;1788;49.400;11.092;2022-08-03T07:11:01;26.20;49.30
3548;DHT22;1788;49.400;11.092;2022-08-03T07:13:27;26.30;49.00
3548;DHT22;1788;49.400;11.092;2022-08-03T07:15:54;26.40;48.80
3548;DHT22;1788;49.400;11.092;2022-08-03T07:18:20;26.50;48.60
3548;DHT22;1788;49.400;11.092;2022-08-03T07:20:48;26.60;48.30
3548;DHT22;1788;49.400;11.092;2022-08-03T07:23:14;26.70;48.10
3548;DHT22;1788;49.400;11.092;2022-08-03T07:25:41;26.80;47.90
3548;DHT22;1788;49.400;11.092;2022-08-03T07:28:08;27.00;47.60
3548;DHT22;1788;49.400;11.092;2022-08-03T07:30:35;27.00;47.60
3548;DHT22;1788;49.400;11.092;2022-08-03T07:33:02;27.10;47.40
3548;DHT22;1788;49.400;11.092;2022-08-03T07:35:28;27.30;47.10
3548;DHT22;1788;49.400;11.092;2022-08-03T07:37:55;27.50;46.70
3548;DHT22;1788;49.400;11.092;2022-08-03T07:40:21;27.60;46.30
3548;DHT22;1788;49.400;11.092;2022-08-03T07:42:48;27.70;46.70
3548;DHT22;1788;49.400;11.092;2022-08-03T07:45:15;27.80;45.90
3548;DHT22;1788;49.400;11.092;2022-08-03T07:47:41;27.90;45.60
3548;DHT22;1788;49.400;11.092;2022-08-03T07:50:09;28.20;45.20
3548;DHT22;1788;49.400;11.092;2022-08-03T07:52:35;28.20;45.20
3548;DHT22;1788;49.400;11.092;2022-08-03T07:55:03;28.50;44.60
3548;DHT22;1788;49.400;11.092;2022-08-03T07:57:29;28.40;44.60
3548;DHT22;1788;49.400;11.092;2022-08-03T07:59:56;28.50;44.40
3548;DHT22;1788;49.400;11.092;2022-08-03T08:02:23;28.70;44.20
3548;DHT22;1788;49.400;11.092;2022-08-03T08:04:49;28.80;44.00
3548;DHT22;1788;49.400;11.092;2022-08-03T08:07:16;28.90;44.30
3548;DHT22;1788;49.400;11.092;2022-08-03T08:09:42;29.10;43.60
3548;DHT22;1788;49.400;11.092;2022-08-03T08:12:09;29.20;43.30
3548;DHT22;1788;49.400;11.092;2022-08-03T08:14:36;29.40;43.10
3548;DHT22;1788;49.400;11.092;2022-08-03T08:17:03;29.60;42.40
3548;DHT22;1788;49.400;11.092;2022-08-03T08:19:30;29.60;42.40
3548;DHT22;1788;49.400;11.092;2022-08-03T08:21:57;29.90;42.30
3548;DHT22;1788;49.400;11.092;2022-08-03T08:24:24;29.80;41.90
3548;DHT22;1788;49.400;11.092;2022-08-03T08:26:51;30.00;41.60
3548;DHT22;1788;49.400;11.092;2022-08-03T08:29:18;30.10;41.40
3548;DHT22;1788;49.400;11.092;2022-08-03T08:31:44;30.20;41.30
3548;DHT22;1788;49.400;11.092;2022-08-03T08:34:12;30.50;40.80
3548;DHT22;1788;49.400;11.092;2022-08-03T08:36:38;30.40;40.70
3548;DHT22;1788;49.400;11.092;2022-08-03T08:39:06;30.70;40.90
3548;DHT22;1788;49.400;11.092;2022-08-03T08:41:32;30.70;40.30
3548;DHT22;1788;49.400;11.092;2022-08-03T08:44:00;30.90;40.20
3548;DHT22;1788;49.400;11.092;2022-08-03T08:46:26;30.90;39.80
3548;DHT22;1788;49.400;11.092;2022-08-03T08:48:54;31.00;39.60
3548;DHT22;1788;49.400;11.092;2022-08-03T08:51:21;31.10;39.30
3548;DHT22;1788;49.400;11.092;2022-08-03T08:53:49;31.20;38.90
3548;DHT22;1788;49.400;11.092;2022-08-03T08:56:15;31.20;38.80
3548;DHT22;1788;49.400;11.092;2022-08-03T09:01:09;31.20;38.50
3548;DHT22;1788;49.400;11.092;2022-08-03T09:03:36;31.40;38.00
3548;DHT22;1788;49.400;11.092;2022-08-03T09:06:03;31.40;37.90
3548;DHT22;1788;49.400;11.092;2022-08-03T09:08:30;31.60;37.80
3548;DHT22;1788;49.400;11.092;2022-08-03T09:10:56;31.70;37.50
3548;DHT22;1788;49.400;11.092;2022-08-03T09:13:22;31.90;37.30
3548;DHT22;1788;49.400;11.092;2022-08-03T09:18:24;32.20;36.80
3548;DHT22;1788;49.400;11.092;2022-08-03T09:20:44;32.40;36.30
3548;DHT22;1788;49.400;11.092;2022-08-03T09:23:10;32.30;36.20
3548;DHT22;1788;49.400;11.092;2022-08-03T09:28:05;32.40;35.90
3548;DHT22;1788;49.400;11.092;2022-08-03T09:30:30;32.50;35.60
3548;DHT22;1788;49.400;11.092;2022-08-03T09:38:07;32.70;35.10
3548;DHT22;1788;49.400;11.092;2022-08-03T09:40:32;32.80;34.80
3548;DHT22;1788;49.400;11.092;2022-08-03T09:45:24;33.00;35.00
3548;DHT22;1788;49.400;11.092;2022-08-03T09:47:37;33.10;34.10
3548;DHT22;1788;49.400;11.092;2022-08-03T09:50:04;33.20;33.80
3548;DHT22;1788;49.400;11.092;2022-08-03T09:54:56;33.30;32.90
3548;DHT22;1788;49.400;11.092;2022-08-03T09:57:24;33.30;32.60
3548;DHT22;1788;49.400;11.092;2022-08-03T09:59:50;33.30;32.30
3548;DHT22;1788;49.400;11.092;2022-08-03T10:07:11;33.60;32.10
3548;DHT22;1788;49.400;11.092;2022-08-03T10:09:38;33.60;32.00
3548;DHT22;1788;49.400;11.092;2022-08-03T10:14:31;33.90;31.50
3548;DHT22;1788;49.400;11.092;2022-08-03T10:16:57;34.00;31.10
3548;DHT22;1788;49.400;11.092;2022-08-03T10:19:24;34.10;31.00
3548;DHT22;1788;49.400;11.092;2022-08-03T10:24:19;34.30;30.70
3548;DHT22;1788;49.400;11.092;2022-08-03T10:26:45;34.40;30.10
3548;DHT22;1788;49.400;11.092;2022-08-03T10:29:12;34.40;30.10
3548;DHT22;1788;49.400;11.092;2022-08-03T10:31:38;34.40;30.10
3548;DHT22;1788;49.400;11.092;2022-08-03T10:36:31;34.70;30.00
3548;DHT22;1788;49.400;11.092;2022-08-03T10:38:58;34.90;29.90
3548;DHT22;1788;49.400;11.092;2022-08-03T10:41:25;35.00;29.80
3548;DHT22;1788;49.400;11.092;2022-08-03T10:46:18;35.30;29.50
3548;DHT22;1788;49.400;11.092;2022-08-03T10:48:45;35.50;29.30
3548;DHT22;1788;49.400;11.092;2022-08-03T10:51:11;35.50;28.70
3548;DHT22;1788;49.400;11.092;2022-08-03T10:53:39;35.50;28.40
3548;DHT22;1788;49.400;11.092;2022-08-03T10:56:04;35.50;28.30
3548;DHT22;1788;49.400;11.092;2022-08-03T11:00:58;35.60;28.10
3548;DHT22;1788;49.400;11.092;2022-08-03T11:03:24;35.50;27.70
3548;DHT22;1788;49.400;11.092;2022-08-03T11:05:51;35.40;27.70
3548;DHT22;1788;49.400;11.092;2022-08-03T11:10:45;35.40;27.90
3548;DHT22;1788;49.400;11.092;2022-08-03T11:13:14;35.50;27.80
3548;DHT22;1788;49.400;11.092;2022-08-03T11:18:07;35.80;27.80
3548;DHT22;1788;49.400;11.092;2022-08-03T11:22:58;36.10;27.50
3548;DHT22;1788;49.400;11.092;2022-08-03T11:25:25;36.20;27.40
3548;DHT22;1788;49.400;11.092;2022-08-03T11:28:19;36.20;27.20
3548;DHT22;1788;49.400;11.092;2022-08-03T11:30:22;36.20;27.10
3548;DHT22;1788;49.400;11.092;2022-08-03T11:35:13;36.20;26.80
3548;DHT22;1788;49.400;11.092;2022-08-03T11:40:05;36.00;27.00
3548;DHT22;1788;49.400;11.092;2022-08-03T11:44:59;36.00;26.70
3548;DHT22;1788;49.400;11.092;2022-08-03T11:47:26;36.00;26.80
3548;DHT22;1788;49.400;11.092;2022-08-03T11:52:19;36.10;26.70
3548;DHT22;1788;49.400;11.092;2022-08-03T11:54:49;36.00;26.70
3548;DHT22;1788;49.400;11.092;2022-08-03T11:57:12;36.10;26.70
3548;DHT22;1788;49.400;11.092;2022-08-03T11:59:39;36.20;26.70
3548;DHT22;1788;49.400;11.092;2022-08-03T12:02:06;36.20;26.60
3548;DHT22;1788;49.400;11.092;2022-08-03T12:07:00;36.20;26.60
3548;DHT22;1788;49.400;11.092;2022-08-03T12:09:26;36.40;26.60
3548;DHT22;1788;49.400;11.092;2022-08-03T12:11:53;36.60;26.60
3548;DHT22;1788;49.400;11.092;2022-08-03T12:14:20;36.80;26.40
3548;DHT22;1788;49.400;11.092;2022-08-03T12:16:47;36.90;26.30
3548;DHT22;1788;49.400;11.092;2022-08-03T12:19:13;37.10;26.30
3548;DHT22;1788;49.400;11.092;2022-08-03T12:24:07;37.20;26.10
3548;DHT22;1788;49.400;11.092;2022-08-03T12:29:00;37.60;25.90
3548;DHT22;1788;49.400;11.092;2022-08-03T12:31:26;37.80;25.60
3548;DHT22;1788;49.400;11.092;2022-08-03T12:36:20;38.30;24.80
3548;DHT22;1788;49.400;11.092;2022-08-03T12:38:53;38.20;24.70
3548;DHT22;1788;49.400;11.092;2022-08-03T12:41:14;38.30;24.70
3548;DHT22;1788;49.400;11.092;2022-08-03T12:46:08;38.20;24.50
3548;DHT22;1788;49.400;11.092;2022-08-03T12:48:34;38.10;24.30
3548;DHT22;1788;49.400;11.092;2022-08-03T12:53:28;38.00;24.40
3548;DHT22;1788;49.400;11.092;2022-08-03T12:56:00;37.90;24.40
3548;DHT22;1788;49.400;11.092;2022-08-03T13:03:15;38.40;24.20
3548;DHT22;1788;49.400;11.092;2022-08-03T13:05:42;38.50;23.90
3548;DHT22;1788;49.400;11.092;2022-08-03T13:10:36;38.60;23.70
3548;DHT22;1788;49.400;11.092;2022-08-03T13:13:03;38.60;23.70
3548;DHT22;1788;49.400;11.092;2022-08-03T13:15:29;38.80;23.60
3548;DHT22;1788;49.400;11.092;2022-08-03T13:17:56;38.90;24.00
3548;DHT22;1788;49.400;11.092;2022-08-03T13:20:23;39.00;23.40
3548;DHT22;1788;49.400;11.092;2022-08-03T13:22:50;39.60;23.30
3548;DHT22;1788;49.400;11.092;2022-08-03T13:25:17;39.50;23.30
3548;DHT22;1788;49.400;11.092;2022-08-03T13:27:43;39.90;23.10
3548;DHT22;1788;49.400;11.092;2022-08-03T13:30:10;40.30;22.80
3548;DHT22;1788;49.400;11.092;2022-08-03T13:32:36;40.40;22.60
3548;DHT22;1788;49.400;11.092;2022-08-03T13:35:03;40.50;22.60
3548;DHT22;1788;49.400;11.092;2022-08-03T13:37:30;40.60;22.30
3548;DHT22;1788;49.400;11.092;2022-08-03T13:39:57;40.80;22.20
3548;DHT22;1788;49.400;11.092;2022-08-03T13:42:23;40.70;22.00
3548;DHT22;1788;49.400;11.092;2022-08-03T13:44:50;40.40;21.90
3548;DHT22;1788;49.400;11.092;2022-08-03T13:47:16;40.50;22.00
3548;DHT22;1788;49.400;11.092;2022-08-03T13:49:44;40.50;22.00
3548;DHT22;1788;49.400;11.092;2022-08-03T13:52:10;40.40;21.90
3548;DHT22;1788;49.400;11.092;2022-08-03T13:54:37;40.80;21.80
3548;DHT22;1788;49.400;11.092;2022-08-03T13:57:04;40.90;21.70
3548;DHT22;1788;49.400;11.092;2022-08-03T13:59:30;41.00;21.80
3548;DHT22;1788;49.400;11.092;2022-08-03T14:01:57;41.10;21.80
3548;DHT22;1788;49.400;11.092;2022-08-03T14:04:23;41.20;21.70
3548;DHT22;1788;49.400;11.092;2022-08-03T14:06:50;41.10;21.70
3548;DHT22;1788;49.400;11.092;2022-08-03T14:09:17;41.10;21.70
3548;DHT22;1788;49.400;11.092;2022-08-03T14:11:43;41.10;21.70
3548;DHT22;1788;49.400;11.092;2022-08-03T14:14:10;41.10;21.60
3548;DHT22;1788;49.400;11.092;2022-08-03T14:16:38;41.10;21.60
3548;DHT22;1788;49.400;11.092;2022-08-03T14:19:04;41.10;21.60
3548;DHT22;1788;49.400;11.092;2022-08-03T14:21:32;40.90;21.60
3548;DHT22;1788;49.400;11.092;2022-08-03T14:23:57;40.60;21.60
3548;DHT22;1788;49.400;11.092;2022-08-03T14:26:24;40.20;21.50
3548;DHT22;1788;49.400;11.092;2022-08-03T14:28:51;39.70;21.60
3548;DHT22;1788;49.400;11.092;2022-08-03T14:31:17;39.40;21.90
3548;DHT22;1788;49.400;11.092;2022-08-03T14:33:44;39.20;22.00
3548;DHT22;1788;49.400;11.092;2022-08-03T14:36:10;39.00;22.00
3548;DHT22;1788;49.400;11.092;2022-08-03T14:38:37;39.00;22.20
3548;DHT22;1788;49.400;11.092;2022-08-03T14:41:04;38.90;22.20
3548;DHT22;1788;49.400;11.092;2022-08-03T14:43:30;38.90;22.20
3548;DHT22;1788;49.400;11.092;2022-08-03T14:45:57;38.80;22.10
3548;DHT22;1788;49.400;11.092;2022-08-03T14:48:24;38.50;22.10
3548;DHT22;1788;49.400;11.092;2022-08-03T14:50:51;38.50;22.10
3548;DHT22;1788;49.400;11.092;2022-08-03T14:53:18;38.40;22.10
3548;DHT22;1788;49.400;11.092;2022-08-03T14:55:44;38.20;22.10
3548;DHT22;1788;49.400;11.092;2022-08-03T14:58:11;37.90;22.10
3548;DHT22;1788;49.400;11.092;2022-08-03T15:00:38;37.70;22.20
3548;DHT22;1788;49.400;11.092;2022-08-03T15:03:04;37.50;22.30
3548;DHT22;1788;49.400;11.092;2022-08-03T15:05:31;37.40;22.40
3548;DHT22;1788;49.400;11.092;2022-08-03T15:07:58;37.30;22.60
3548;DHT22;1788;49.400;11.092;2022-08-03T15:10:25;37.30;22.60
3548;DHT22;1788;49.400;11.092;2022-08-03T15:12:52;37.30;22.60
3548;DHT22;1788;49.400;11.092;2022-08-03T15:15:18;37.30;22.60
3548;DHT22;1788;49.400;11.092;2022-08-03T15:17:45;37.30;22.60
3548;DHT22;1788;49.400;11.092;2022-08-03T15:20:11;37.20;22.50
3548;DHT22;1788;49.400;11.092;2022-08-03T15:22:38;37.20;22.50
3548;DHT22;1788;49.400;11.092;2022-08-03T15:25:05;37.20;22.50
3548;DHT22;1788;49.400;11.092;2022-08-03T15:27:31;37.20;22.50
3548;DHT22;1788;49.400;11.092;2022-08-03T15:29:58;37.20;22.50
3548;DHT22;1788;49.400;11.092;2022-08-03T15:32:25;37.20;22.60
3548;DHT22;1788;49.400;11.092;2022-08-03T15:34:52;37.20;22.60
3548;DHT22;1788;49.400;11.092;2022-08-03T15:37:19;37.20;22.50
3548;DHT22;1788;49.400;11.092;2022-08-03T15:39:45;37.20;22.60
3548;DHT22;1788;49.400;11.092;2022-08-03T15:42:12;37.20;22.70
3548;DHT22;1788;49.400;11.092;2022-08-03T15:44:39;37.20;22.70
3548;DHT22;1788;49.400;11.092;2022-08-03T15:47:05;37.20;22.70
3548;DHT22;1788;49.400;11.092;2022-08-03T15:49:32;37.20;22.80
3548;DHT22;1788;49.400;11.092;2022-08-03T15:51:59;37.30;22.80
3548;DHT22;1788;49.400;11.092;2022-08-03T15:54:25;37.40;22.80
3548;DHT22;1788;49.400;11.092;2022-08-03T15:56:52;37.40;22.80
3548;DHT22;1788;49.400;11.092;2022-08-03T15:59:18;37.50;22.80
3548;DHT22;1788;49.400;11.092;2022-08-03T16:01:45;37.50;22.70
3548;DHT22;1788;49.400;11.092;2022-08-03T16:04:12;37.50;22.70
3548;DHT22;1788;49.400;11.092;2022-08-03T16:06:39;37.40;22.70
3548;DHT22;1788;49.400;11.092;2022-08-03T16:09:06;37.30;22.60
3548;DHT22;1788;49.400;11.092;2022-08-03T16:11:32;37.20;22.60
3548;DHT22;1788;49.400;11.092;2022-08-03T16:13:58;37.00;22.60
3548;DHT22;1788;49.400;11.092;2022-08-03T16:16:26;36.80;22.70
3548;DHT22;1788;49.400;11.092;2022-08-03T16:18:52;36.80;22.70
3548;DHT22;1788;49.400;11.092;2022-08-03T16:21:19;36.70;22.70
3548;DHT22;1788;49.400;11.092;2022-08-03T16:23:46;36.70;22.80
3548;DHT22;1788;49.400;11.092;2022-08-03T16:26:12;36.60;22.80
3548;DHT22;1788;49.400;11.092;2022-08-03T16:28:40;36.50;22.80
3548;DHT22;1788;49.400;11.092;2022-08-03T16:31:06;36.50;22.80
3548;DHT22;1788;49.400;11.092;2022-08-03T16:33:33;36.50;22.80
3548;DHT22;1788;49.400;11.092;2022-08-03T16:36:00;36.30;22.90
3548;DHT22;1788;49.400;11.092;2022-08-03T16:38:26;36.30;22.90
3548;DHT22;1788;49.400;11.092;2022-08-03T16:40:53;36.10;23.00
3548;DHT22;1788;49.400;11.092;2022-08-03T16:43:20;36.00;23.10
3548;DHT22;1788;49.400;11.092;2022-08-03T16:48:14;35.90;23.20
3548;DHT22;1788;49.400;11.092;2022-08-03T16:50:40;35.80;23.30
3548;DHT22;1788;49.400;11.092;2022-08-03T16:53:07;35.70;23.30
3548;DHT22;1788;49.400;11.092;2022-08-03T16:55:34;35.60;23.30
3548;DHT22;1788;49.400;11.092;2022-08-03T16:58:00;35.60;23.40
3548;DHT22;1788;49.400;11.092;2022-08-03T17:00:27;35.50;23.40
3548;DHT22;1788;49.400;11.092;2022-08-03T17:02:54;35.40;23.40
3548;DHT22;1788;49.400;11.092;2022-08-03T17:05:20;35.30;23.50
3548;DHT22;1788;49.400;11.092;2022-08-03T17:07:46;35.30;23.60
3548;DHT22;1788;49.400;11.092;2022-08-03T17:10:13;35.30;23.70
3548;DHT22;1788;49.400;11.092;2022-08-03T17:12:39;35.20;23.80
3548;DHT22;1788;49.400;11.092;2022-08-03T17:15:06;35.20;24.00
3548;DHT22;1788;49.400;11.092;2022-08-03T17:17:33;35.10;24.00
3548;DHT22;1788;49.400;11.092;2022-08-03T17:20:00;35.10;24.00
3548;DHT22;1788;49.400;11.092;2022-08-03T17:22:27;35.00;24.20
3548;DHT22;1788;49.400;11.092;2022-08-03T17:24:53;35.00;24.40
3548;DHT22;1788;49.400;11.092;2022-08-03T17:27:20;35.00;24.40
3548;DHT22;1788;49.400;11.092;2022-08-03T17:29:47;34.90;24.40